createdAt,value
2023-02-16T00:00:22.381Z,3.30
2023-02-16T00:05:31.313Z,3.40
2023-02-16T00:10:39.653Z,3.30
2023-02-16T00:15:48.339Z,3.30
2023-02-16T00:20:57.081Z,3.30
2023-02-16T00:26:06.258Z,3.30
2023-02-16T00:31:15.699Z,3.30
2023-02-16T00:36:24.794Z,3.30
2023-02-16T00:41:33.201Z,3.40
2023-02-16T00:46:42.497Z,3.40
2023-02-16T00:51:50.738Z,3.40
2023-02-16T00:57:00.142Z,3.50
2023-02-16T01:02:08.747Z,3.40
2023-02-16T01:07:17.541Z,3.40
2023-02-16T01:12:26.023Z,3.40
2023-02-16T01:17:35.085Z,3.40
2023-02-16T01:22:43.649Z,3.40
2023-02-16T01:27:52.935Z,3.40
2023-02-16T01:33:01.258Z,3.30
2023-02-16T01:38:10.162Z,3.30
2023-02-16T01:43:18.732Z,3.30
2023-02-16T01:48:27.514Z,3.30
2023-02-16T01:53:36.100Z,3.30
2023-02-16T01:58:44.836Z,3.30
2023-02-16T02:03:56.413Z,3.20
2023-02-16T02:08:55.331Z,3.30
2023-02-16T02:14:03.612Z,3.30
2023-02-16T02:19:12.352Z,3.30
2023-02-16T02:24:20.864Z,3.30
2023-02-16T02:29:30.606Z,3.30
2023-02-16T02:34:39.277Z,3.20
2023-02-16T02:39:48.350Z,3.20
2023-02-16T02:44:56.871Z,3.30
2023-02-16T02:50:06.322Z,3.30
2023-02-16T02:55:14.896Z,3.20
2023-02-16T03:00:23.477Z,3.30
2023-02-16T03:05:31.717Z,3.30
2023-02-16T03:10:40.482Z,3.30
2023-02-16T03:15:48.966Z,3.30
2023-02-16T03:20:57.636Z,3.30
2023-02-16T03:26:06.134Z,3.30
2023-02-16T03:31:14.640Z,3.30
2023-02-16T03:36:23.019Z,3.30
2023-02-16T03:41:31.570Z,3.30
2023-02-16T03:46:39.858Z,3.30
2023-02-16T03:51:50.542Z,3.30
2023-02-16T03:56:49.073Z,3.30
2023-02-16T04:01:57.884Z,3.30
2023-02-16T04:07:06.111Z,3.30
2023-02-16T04:12:14.794Z,3.30
2023-02-16T04:17:23.022Z,3.30
2023-02-16T04:22:32.160Z,3.30
2023-02-16T04:27:42.389Z,3.30
2023-02-16T04:32:41.395Z,3.30
2023-02-16T04:37:50.059Z,3.30
2023-02-16T04:42:58.641Z,3.30
2023-02-16T04:48:07.921Z,3.30
2023-02-16T04:53:17.101Z,3.30
2023-02-16T04:58:25.844Z,3.30
2023-02-16T05:03:34.724Z,3.30
2023-02-16T05:08:43.421Z,3.30
2023-02-16T05:13:53.093Z,3.20
2023-02-16T05:19:02.049Z,3.30
2023-02-16T05:24:10.886Z,3.30
2023-02-16T05:29:19.903Z,3.30
2023-02-16T05:34:28.722Z,3.30
2023-02-16T05:39:37.608Z,3.40
2023-02-16T05:44:47.624Z,3.50
2023-02-16T05:49:46.039Z,3.60
2023-02-16T05:54:55.335Z,3.60
2023-02-16T06:00:04.462Z,3.60
2023-02-16T06:05:13.297Z,3.60
2023-02-16T06:10:21.502Z,3.70
2023-02-16T06:15:30.799Z,3.70
2023-02-16T06:20:39.625Z,3.70
2023-02-16T06:25:48.760Z,3.80
2023-02-16T06:30:57.077Z,3.80
2023-02-16T06:36:06.051Z,3.80
2023-02-16T06:41:14.803Z,3.90
2023-02-16T06:46:23.599Z,3.90
2023-02-16T06:51:31.957Z,4.00
2023-02-16T06:56:41.059Z,4.00
2023-02-16T07:01:49.886Z,4.00
2023-02-16T07:06:58.879Z,4.00
2023-02-16T07:12:07.869Z,4.10
2023-02-16T07:17:16.350Z,4.10
2023-02-16T07:22:24.642Z,4.20
2023-02-16T07:27:33.660Z,4.20
2023-02-16T07:32:41.891Z,4.30
2023-02-16T07:37:51.088Z,4.40
2023-02-16T07:42:59.753Z,4.60
2023-02-16T07:48:08.897Z,4.70
2023-02-16T07:53:18.437Z,4.90
2023-02-16T07:58:27.611Z,5.10
2023-02-16T08:03:36.242Z,5.20
2023-02-16T08:08:46.319Z,5.20
2023-02-16T08:13:44.761Z,5.40
2023-02-16T08:18:53.982Z,5.50
2023-02-16T08:24:02.767Z,5.70
2023-02-16T08:29:11.592Z,5.80
2023-02-16T08:34:20.004Z,5.90
2023-02-16T08:39:30.019Z,6.00
2023-02-16T08:44:38.842Z,6.20
2023-02-16T08:49:47.549Z,6.30
2023-02-16T08:54:56.263Z,6.40
2023-02-16T09:00:04.642Z,6.50
2023-02-16T09:05:13.330Z,6.60
2023-02-16T09:10:22.717Z,6.60
2023-02-16T09:15:31.397Z,6.70
2023-02-16T09:20:40.605Z,6.70
2023-02-16T09:25:52.500Z,6.70
2023-02-16T09:30:51.637Z,6.70
2023-02-16T09:36:00.408Z,6.70
2023-02-16T09:41:10.671Z,6.70
2023-02-16T09:46:17.659Z,6.80
2023-02-16T09:51:34.437Z,6.80
2023-02-16T09:56:35.095Z,7.00
2023-02-16T10:01:44.121Z,7.10
2023-02-16T10:06:52.526Z,7.20
2023-02-16T10:12:01.361Z,7.40
2023-02-16T10:17:10.265Z,7.40
2023-02-16T10:22:19.069Z,7.60
2023-02-16T10:27:27.529Z,7.60
2023-02-16T10:32:42.130Z,7.70
2023-02-16T10:37:44.078Z,7.70
2023-02-16T10:42:53.115Z,7.70
2023-02-16T10:48:03.706Z,7.70
2023-02-16T10:53:02.061Z,7.70
2023-02-16T10:58:10.423Z,7.70
2023-02-16T11:03:19.469Z,7.80
2023-02-16T11:08:29.780Z,7.70
2023-02-16T11:13:36.244Z,7.60
2023-02-16T11:18:45.206Z,7.60
2023-02-16T11:23:53.758Z,7.50
2023-02-16T11:29:02.327Z,7.60
2023-02-16T11:34:13.936Z,7.80
2023-02-16T11:39:12.273Z,7.90
2023-02-16T11:44:20.767Z,7.90
2023-02-16T11:49:29.227Z,7.90
2023-02-16T11:54:39.862Z,7.90
2023-02-16T11:59:38.215Z,8.00
2023-02-16T12:04:46.780Z,8.00
2023-02-16T12:09:55.175Z,8.00
2023-02-16T12:15:04.030Z,8.00
2023-02-16T12:20:12.543Z,7.90
2023-02-16T12:25:21.437Z,7.80
2023-02-16T12:30:29.823Z,7.80
2023-02-16T12:35:38.819Z,7.90
2023-02-16T12:40:47.168Z,7.80
2023-02-16T12:45:56.050Z,7.70
2023-02-16T12:51:04.742Z,7.50
2023-02-16T12:56:13.548Z,7.30
2023-02-16T13:01:22.162Z,7.30
2023-02-16T13:06:31.038Z,7.10
2023-02-16T13:11:39.930Z,7.10
2023-02-16T13:16:48.736Z,7.00
2023-02-16T13:21:57.295Z,6.90
2023-02-16T13:27:06.595Z,6.80
2023-02-16T13:32:15.468Z,6.70
2023-02-16T13:37:23.641Z,6.80
2023-02-16T13:42:31.478Z,6.90
2023-02-16T13:47:40.350Z,6.90
2023-02-16T13:52:48.866Z,6.90
2023-02-16T13:57:57.754Z,6.90
2023-02-16T14:03:06.333Z,6.90
2023-02-16T14:08:14.958Z,6.90
2023-02-16T14:13:23.419Z,6.80
2023-02-16T14:18:32.089Z,6.70
2023-02-16T14:23:40.478Z,6.60
2023-02-16T14:28:49.145Z,6.60
2023-02-16T14:33:57.569Z,6.40
2023-02-16T14:39:06.417Z,6.20
2023-02-16T14:44:15.089Z,6.00
2023-02-16T14:49:24.008Z,5.80
2023-02-16T14:54:32.171Z,5.60
2023-02-16T14:59:40.921Z,5.50
2023-02-16T15:04:49.165Z,5.50
2023-02-16T15:09:57.926Z,5.40
2023-02-16T15:15:05.948Z,5.30
2023-02-16T15:20:14.718Z,5.20
2023-02-16T15:25:23.242Z,5.10
2023-02-16T15:30:31.930Z,5.10
2023-02-16T15:35:40.167Z,5.00
2023-02-16T15:40:48.402Z,4.90
2023-02-16T15:45:56.846Z,4.90
2023-02-16T15:51:05.594Z,4.80
2023-02-16T15:56:13.692Z,4.80
2023-02-16T16:01:31.163Z,4.80
2023-02-16T16:06:30.486Z,4.70
2023-02-16T16:11:39.230Z,4.70
2023-02-16T16:16:47.637Z,4.60
2023-02-16T16:21:56.997Z,4.60
2023-02-16T16:27:05.297Z,4.60
2023-02-16T16:32:13.794Z,4.50
2023-02-16T16:37:22.581Z,4.50
2023-02-16T16:42:31.285Z,4.50
2023-02-16T16:47:39.208Z,4.40
2023-02-16T16:52:47.751Z,4.40
2023-02-16T16:57:55.755Z,4.40
2023-02-16T17:03:04.636Z,4.40
2023-02-16T17:08:12.943Z,4.40
2023-02-16T17:13:24.676Z,4.40
2023-02-16T17:18:22.864Z,4.30
2023-02-16T17:23:31.687Z,4.30
2023-02-16T17:28:39.860Z,4.30
2023-02-16T17:33:49.744Z,4.30
2023-02-16T17:38:57.874Z,4.20
2023-02-16T17:44:06.684Z,4.20
2023-02-16T17:49:15.190Z,4.10
2023-02-16T17:54:23.619Z,4.10
2023-02-16T17:59:33.247Z,4.10
2023-02-16T18:04:40.488Z,4.00
2023-02-16T18:09:49.007Z,4.00
2023-02-16T18:14:57.611Z,4.00
2023-02-16T18:20:05.964Z,3.90
2023-02-16T18:25:15.006Z,3.90
2023-02-16T18:30:23.124Z,3.90
2023-02-16T18:35:31.813Z,3.80
2023-02-16T18:40:40.416Z,3.80
2023-02-16T18:45:49.977Z,3.70
2023-02-16T18:50:59.189Z,3.70
2023-02-16T18:56:08.511Z,3.70
2023-02-16T19:01:17.954Z,3.70
2023-02-16T19:06:26.645Z,3.60
2023-02-16T19:11:35.257Z,3.60
2023-02-16T19:16:43.539Z,3.50
2023-02-16T19:21:51.784Z,3.40
2023-02-16T19:27:00.606Z,3.50
2023-02-16T19:32:09.155Z,3.40
2023-02-16T19:37:17.755Z,3.30
2023-02-16T19:42:26.140Z,3.30
2023-02-16T19:47:34.619Z,3.30
2023-02-16T19:52:42.662Z,3.30
2023-02-16T19:57:51.222Z,3.30
2023-02-16T20:02:59.772Z,3.30
2023-02-16T20:08:08.658Z,3.20
2023-02-16T20:13:17.074Z,3.20
2023-02-16T20:18:26.259Z,3.20
2023-02-16T20:23:34.708Z,3.20
2023-02-16T20:28:43.058Z,3.30
2023-02-16T20:33:51.592Z,3.20
2023-02-16T20:39:00.488Z,3.20
2023-02-16T20:44:08.832Z,3.20
2023-02-16T20:49:19.139Z,3.20
2023-02-16T20:54:17.346Z,3.20
2023-02-16T20:59:26.619Z,3.30
2023-02-16T21:04:34.765Z,3.30
2023-02-16T21:09:43.231Z,3.30
2023-02-16T21:14:51.568Z,3.20
2023-02-16T21:20:00.304Z,3.20
2023-02-16T21:25:08.876Z,3.10
2023-02-16T21:30:17.958Z,3.10
2023-02-16T21:35:26.443Z,3.10
2023-02-16T21:40:35.182Z,3.10
2023-02-16T21:45:43.646Z,3.10
2023-02-16T21:50:52.434Z,3.10
2023-02-16T21:56:01.150Z,3.10
2023-02-16T22:01:10.407Z,3.10
2023-02-16T22:06:18.869Z,3.10
2023-02-16T22:11:29.124Z,3.10
2023-02-16T22:16:27.425Z,3.00
2023-02-16T22:21:36.220Z,3.00
2023-02-16T22:26:44.337Z,3.00
2023-02-16T22:31:52.838Z,2.90
2023-02-16T22:37:01.245Z,2.90
2023-02-16T22:42:10.177Z,2.90
2023-02-16T22:47:18.325Z,2.90
2023-02-16T22:52:27.195Z,2.80
2023-02-16T22:57:35.660Z,2.70
2023-02-16T23:02:44.895Z,2.70
2023-02-16T23:07:53.065Z,2.70
2023-02-16T23:13:01.574Z,2.70
2023-02-16T23:18:10.074Z,2.70
2023-02-16T23:23:18.822Z,2.70
2023-02-16T23:28:27.474Z,2.70
2023-02-16T23:33:36.918Z,2.70
2023-02-16T23:38:45.464Z,2.60
2023-02-16T23:43:54.218Z,2.60
2023-02-16T23:49:02.671Z,2.60
2023-02-16T23:54:11.347Z,2.60
2023-02-16T23:59:19.395Z,2.60
